sensor_id;sensor_type;location;lat;lon;timestamp;P1;durP1;ratioP1;P2;durP2;ratioP2
7017;SDS011;3549;42.162;24.726;2023-05-07T00:00:01;11.73;;;8.23;;
7017;SDS011;3549;42.162;24.726;2023-05-07T00:02:28;13.40;;;8.43;;
7017;SDS011;3549;42.162;24.726;2023-05-07T00:04:54;13.03;;;8.60;;
7017;SDS011;3549;42.162;24.726;2023-05-07T00:07:20;11.57;;;8.33;;
7017;SDS011;3549;42.162;24.726;2023-05-07T00:09:45;13.33;;;8.80;;
7017;SDS011;3549;42.162;24.726;2023-05-07T00:12:11;14.00;;;8.40;;
7017;SDS011;3549;42.162;24.726;2023-05-07T00:14:36;12.77;;;8.57;;
7017;SDS011;3549;42.162;24.726;2023-05-07T00:17:02;10.33;;;8.30;;
7017;SDS011;3549;42.162;24.726;2023-05-07T00:19:27;11.37;;;8.23;;
7017;SDS011;3549;42.162;24.726;2023-05-07T00:21:53;12.03;;;8.67;;
7017;SDS011;3549;42.162;24.726;2023-05-07T00:24:22;11.70;;;8.53;;
7017;SDS011;3549;42.162;24.726;2023-05-07T00:26:47;12.47;;;8.50;;
7017;SDS011;3549;42.162;24.726;2023-05-07T00:29:12;12.90;;;8.70;;
7017;SDS011;3549;42.162;24.726;2023-05-07T00:31:38;14.73;;;8.93;;
7017;SDS011;3549;42.162;24.726;2023-05-07T00:34:03;10.93;;;8.23;;
7017;SDS011;3549;42.162;24.726;2023-05-07T00:36:28;11.07;;;8.03;;
7017;SDS011;3549;42.162;24.726;2023-05-07T00:38:56;11.67;;;8.07;;
7017;SDS011;3549;42.162;24.726;2023-05-07T00:41:22;11.43;;;7.67;;
7017;SDS011;3549;42.162;24.726;2023-05-07T00:43:47;10.93;;;8.07;;
7017;SDS011;3549;42.162;24.726;2023-05-07T00:46:13;11.23;;;7.80;;
7017;SDS011;3549;42.162;24.726;2023-05-07T00:48:40;11.93;;;8.40;;
7017;SDS011;3549;42.162;24.726;2023-05-07T00:51:06;12.23;;;8.87;;
7017;SDS011;3549;42.162;24.726;2023-05-07T00:53:32;12.37;;;8.87;;
7017;SDS011;3549;42.162;24.726;2023-05-07T00:55:57;13.63;;;9.20;;
7017;SDS011;3549;42.162;24.726;2023-05-07T00:58:23;12.60;;;9.67;;
7017;SDS011;3549;42.162;24.726;2023-05-07T01:00:48;14.50;;;9.70;;
7017;SDS011;3549;42.162;24.726;2023-05-07T01:03:15;16.00;;;9.57;;
7017;SDS011;3549;42.162;24.726;2023-05-07T01:05:40;13.37;;;9.60;;
7017;SDS011;3549;42.162;24.726;2023-05-07T01:08:07;12.93;;;9.60;;
7017;SDS011;3549;42.162;24.726;2023-05-07T01:10:33;11.57;;;9.07;;
7017;SDS011;3549;42.162;24.726;2023-05-07T01:12:59;22.60;;;10.37;;
7017;SDS011;3549;42.162;24.726;2023-05-07T01:15:25;11.87;;;9.03;;
7017;SDS011;3549;42.162;24.726;2023-05-07T01:17:50;16.80;;;10.30;;
7017;SDS011;3549;42.162;24.726;2023-05-07T01:20:17;12.80;;;9.10;;
7017;SDS011;3549;42.162;24.726;2023-05-07T01:22:43;16.33;;;9.37;;
7017;SDS011;3549;42.162;24.726;2023-05-07T01:25:08;13.03;;;9.33;;
7017;SDS011;3549;42.162;24.726;2023-05-07T01:27:34;12.70;;;9.30;;
7017;SDS011;3549;42.162;24.726;2023-05-07T01:30:01;13.27;;;9.83;;
7017;SDS011;3549;42.162;24.726;2023-05-07T01:32:43;12.37;;;9.07;;
7017;SDS011;3549;42.162;24.726;2023-05-07T01:35:13;14.27;;;9.80;;
7017;SDS011;3549;42.162;24.726;2023-05-07T01:37:45;17.60;;;10.30;;
7017;SDS011;3549;42.162;24.726;2023-05-07T01:40:12;19.70;;;10.13;;
7017;SDS011;3549;42.162;24.726;2023-05-07T01:42:38;14.53;;;9.97;;
7017;SDS011;3549;42.162;24.726;2023-05-07T01:45:04;12.27;;;9.90;;
7017;SDS011;3549;42.162;24.726;2023-05-07T01:47:30;16.50;;;10.23;;
7017;SDS011;3549;42.162;24.726;2023-05-07T01:49:56;15.67;;;11.00;;
7017;SDS011;3549;42.162;24.726;2023-05-07T01:52:23;16.93;;;11.33;;
7017;SDS011;3549;42.162;24.726;2023-05-07T01:54:49;16.43;;;11.60;;
7017;SDS011;3549;42.162;24.726;2023-05-07T01:57:15;17.87;;;11.77;;
7017;SDS011;3549;42.162;24.726;2023-05-07T01:59:40;17.57;;;11.87;;
7017;SDS011;3549;42.162;24.726;2023-05-07T02:02:05;24.43;;;13.23;;
7017;SDS011;3549;42.162;24.726;2023-05-07T02:04:31;26.60;;;17.83;;
7017;SDS011;3549;42.162;24.726;2023-05-07T02:06:56;21.67;;;13.87;;
7017;SDS011;3549;42.162;24.726;2023-05-07T02:09:22;19.60;;;13.33;;
7017;SDS011;3549;42.162;24.726;2023-05-07T02:11:47;17.57;;;12.47;;
7017;SDS011;3549;42.162;24.726;2023-05-07T02:14:13;18.57;;;12.87;;
7017;SDS011;3549;42.162;24.726;2023-05-07T02:16:38;23.27;;;14.60;;
7017;SDS011;3549;42.162;24.726;2023-05-07T02:19:04;21.87;;;13.80;;
7017;SDS011;3549;42.162;24.726;2023-05-07T02:21:30;21.60;;;15.10;;
7017;SDS011;3549;42.162;24.726;2023-05-07T02:23:55;59.00;;;40.73;;
7017;SDS011;3549;42.162;24.726;2023-05-07T02:26:20;52.83;;;37.43;;
7017;SDS011;3549;42.162;24.726;2023-05-07T02:28:46;43.87;;;32.60;;
7017;SDS011;3549;42.162;24.726;2023-05-07T02:31:12;30.17;;;20.33;;
7017;SDS011;3549;42.162;24.726;2023-05-07T02:33:37;31.70;;;20.03;;
7017;SDS011;3549;42.162;24.726;2023-05-07T02:36:06;32.57;;;22.00;;
7017;SDS011;3549;42.162;24.726;2023-05-07T02:38:35;64.97;;;41.97;;
7017;SDS011;3549;42.162;24.726;2023-05-07T02:41:01;52.77;;;33.20;;
7017;SDS011;3549;42.162;24.726;2023-05-07T02:43:26;35.73;;;24.97;;
7017;SDS011;3549;42.162;24.726;2023-05-07T02:46:04;32.03;;;21.63;;
7017;SDS011;3549;42.162;24.726;2023-05-07T02:48:31;31.33;;;20.90;;
7017;SDS011;3549;42.162;24.726;2023-05-07T02:50:58;26.27;;;18.27;;
7017;SDS011;3549;42.162;24.726;2023-05-07T02:53:24;26.10;;;17.03;;
7017;SDS011;3549;42.162;24.726;2023-05-07T02:55:53;26.70;;;16.83;;
7017;SDS011;3549;42.162;24.726;2023-05-07T02:58:18;27.93;;;18.20;;
7017;SDS011;3549;42.162;24.726;2023-05-07T03:00:43;25.63;;;17.47;;
7017;SDS011;3549;42.162;24.726;2023-05-07T03:03:09;25.87;;;16.57;;
7017;SDS011;3549;42.162;24.726;2023-05-07T03:05:35;25.13;;;16.47;;
7017;SDS011;3549;42.162;24.726;2023-05-07T03:08:01;29.97;;;16.87;;
7017;SDS011;3549;42.162;24.726;2023-05-07T03:10:26;24.80;;;16.47;;
7017;SDS011;3549;42.162;24.726;2023-05-07T03:12:52;23.30;;;16.07;;
7017;SDS011;3549;42.162;24.726;2023-05-07T03:15:17;27.90;;;16.63;;
7017;SDS011;3549;42.162;24.726;2023-05-07T03:17:42;24.10;;;16.53;;
7017;SDS011;3549;42.162;24.726;2023-05-07T03:20:08;25.17;;;15.83;;
7017;SDS011;3549;42.162;24.726;2023-05-07T03:22:34;23.83;;;16.03;;
7017;SDS011;3549;42.162;24.726;2023-05-07T03:25:00;26.87;;;17.73;;
7017;SDS011;3549;42.162;24.726;2023-05-07T03:27:25;25.63;;;16.33;;
7017;SDS011;3549;42.162;24.726;2023-05-07T03:29:51;24.43;;;16.50;;
7017;SDS011;3549;42.162;24.726;2023-05-07T03:32:16;25.70;;;16.77;;
7017;SDS011;3549;42.162;24.726;2023-05-07T03:34:41;24.10;;;16.17;;
7017;SDS011;3549;42.162;24.726;2023-05-07T03:37:07;36.10;;;22.43;;
7017;SDS011;3549;42.162;24.726;2023-05-07T03:39:32;38.13;;;26.07;;
7017;SDS011;3549;42.162;24.726;2023-05-07T03:41:58;28.13;;;18.17;;
7017;SDS011;3549;42.162;24.726;2023-05-07T03:44:23;24.53;;;15.83;;
7017;SDS011;3549;42.162;24.726;2023-05-07T03:46:49;25.07;;;14.90;;
7017;SDS011;3549;42.162;24.726;2023-05-07T03:49:15;26.83;;;14.73;;
7017;SDS011;3549;42.162;24.726;2023-05-07T03:51:40;23.53;;;14.90;;
7017;SDS011;3549;42.162;24.726;2023-05-07T03:54:06;26.87;;;15.40;;
7017;SDS011;3549;42.162;24.726;2023-05-07T03:56:31;22.23;;;15.07;;
7017;SDS011;3549;42.162;24.726;2023-05-07T03:58:57;25.73;;;16.00;;
7017;SDS011;3549;42.162;24.726;2023-05-07T04:01:22;23.83;;;15.83;;
7017;SDS011;3549;42.162;24.726;2023-05-07T04:03:48;24.93;;;16.37;;
7017;SDS011;3549;42.162;24.726;2023-05-07T04:06:15;25.47;;;17.30;;
7017;SDS011;3549;42.162;24.726;2023-05-07T04:08:41;26.80;;;17.37;;
7017;SDS011;3549;42.162;24.726;2023-05-07T04:11:06;27.77;;;17.13;;
7017;SDS011;3549;42.162;24.726;2023-05-07T04:13:31;25.10;;;16.90;;
7017;SDS011;3549;42.162;24.726;2023-05-07T04:15:57;27.17;;;15.97;;
7017;SDS011;3549;42.162;24.726;2023-05-07T04:18:22;25.73;;;16.90;;
7017;SDS011;3549;42.162;24.726;2023-05-07T04:20:48;25.07;;;15.63;;
7017;SDS011;3549;42.162;24.726;2023-05-07T04:23:16;27.80;;;17.07;;
7017;SDS011;3549;42.162;24.726;2023-05-07T04:25:42;28.10;;;17.67;;
7017;SDS011;3549;42.162;24.726;2023-05-07T04:28:07;27.50;;;17.23;;
7017;SDS011;3549;42.162;24.726;2023-05-07T04:30:33;29.73;;;17.87;;
7017;SDS011;3549;42.162;24.726;2023-05-07T04:32:58;27.90;;;17.50;;
7017;SDS011;3549;42.162;24.726;2023-05-07T04:35:23;29.43;;;18.60;;
7017;SDS011;3549;42.162;24.726;2023-05-07T04:37:49;29.10;;;19.03;;
7017;SDS011;3549;42.162;24.726;2023-05-07T04:40:14;31.27;;;18.17;;
7017;SDS011;3549;42.162;24.726;2023-05-07T04:42:40;27.00;;;17.97;;
7017;SDS011;3549;42.162;24.726;2023-05-07T04:45:06;27.00;;;16.27;;
7017;SDS011;3549;42.162;24.726;2023-05-07T04:47:31;24.30;;;16.43;;
7017;SDS011;3549;42.162;24.726;2023-05-07T04:49:57;26.57;;;16.43;;
7017;SDS011;3549;42.162;24.726;2023-05-07T04:52:23;27.80;;;17.50;;
7017;SDS011;3549;42.162;24.726;2023-05-07T04:54:48;25.83;;;16.87;;
7017;SDS011;3549;42.162;24.726;2023-05-07T04:57:14;24.17;;;16.50;;
7017;SDS011;3549;42.162;24.726;2023-05-07T04:59:39;25.00;;;16.93;;
7017;SDS011;3549;42.162;24.726;2023-05-07T05:02:05;24.80;;;15.90;;
7017;SDS011;3549;42.162;24.726;2023-05-07T05:04:30;22.97;;;16.10;;
7017;SDS011;3549;42.162;24.726;2023-05-07T05:06:56;25.73;;;15.73;;
7017;SDS011;3549;42.162;24.726;2023-05-07T05:09:21;23.53;;;16.10;;
7017;SDS011;3549;42.162;24.726;2023-05-07T05:11:46;23.47;;;15.83;;
7017;SDS011;3549;42.162;24.726;2023-05-07T05:14:12;24.10;;;15.70;;
7017;SDS011;3549;42.162;24.726;2023-05-07T05:16:37;22.30;;;15.43;;
7017;SDS011;3549;42.162;24.726;2023-05-07T05:19:03;23.90;;;15.13;;
7017;SDS011;3549;42.162;24.726;2023-05-07T05:21:28;25.03;;;15.73;;
7017;SDS011;3549;42.162;24.726;2023-05-07T05:23:53;21.87;;;15.17;;
7017;SDS011;3549;42.162;24.726;2023-05-07T05:26:19;23.93;;;15.97;;
7017;SDS011;3549;42.162;24.726;2023-05-07T05:28:46;18.67;;;14.70;;
7017;SDS011;3549;42.162;24.726;2023-05-07T05:31:11;22.57;;;15.50;;
7017;SDS011;3549;42.162;24.726;2023-05-07T05:33:37;25.10;;;15.90;;
7017;SDS011;3549;42.162;24.726;2023-05-07T05:36:02;22.77;;;14.67;;
7017;SDS011;3549;42.162;24.726;2023-05-07T05:38:28;19.00;;;14.13;;
7017;SDS011;3549;42.162;24.726;2023-05-07T05:40:54;21.03;;;13.90;;
7017;SDS011;3549;42.162;24.726;2023-05-07T05:43:19;20.40;;;14.10;;
7017;SDS011;3549;42.162;24.726;2023-05-07T05:45:45;19.30;;;13.70;;
7017;SDS011;3549;42.162;24.726;2023-05-07T05:48:10;19.93;;;13.50;;
7017;SDS011;3549;42.162;24.726;2023-05-07T05:50:36;20.97;;;13.37;;
7017;SDS011;3549;42.162;24.726;2023-05-07T05:53:01;17.07;;;12.50;;
7017;SDS011;3549;42.162;24.726;2023-05-07T05:55:27;20.10;;;13.40;;
7017;SDS011;3549;42.162;24.726;2023-05-07T05:57:53;25.43;;;14.77;;
7017;SDS011;3549;42.162;24.726;2023-05-07T06:00:18;19.90;;;13.03;;
7017;SDS011;3549;42.162;24.726;2023-05-07T06:02:44;14.90;;;11.07;;
7017;SDS011;3549;42.162;24.726;2023-05-07T06:05:09;16.90;;;11.90;;
7017;SDS011;3549;42.162;24.726;2023-05-07T06:07:35;17.60;;;11.30;;
7017;SDS011;3549;42.162;24.726;2023-05-07T06:10:03;18.97;;;11.30;;
7017;SDS011;3549;42.162;24.726;2023-05-07T06:12:28;16.10;;;11.13;;
7017;SDS011;3549;42.162;24.726;2023-05-07T06:14:54;14.90;;;11.23;;
7017;SDS011;3549;42.162;24.726;2023-05-07T06:17:19;16.70;;;11.50;;
7017;SDS011;3549;42.162;24.726;2023-05-07T06:19:45;18.97;;;11.27;;
7017;SDS011;3549;42.162;24.726;2023-05-07T06:22:10;14.63;;;10.97;;
7017;SDS011;3549;42.162;24.726;2023-05-07T06:24:36;15.57;;;10.77;;
7017;SDS011;3549;42.162;24.726;2023-05-07T06:27:01;16.57;;;10.83;;
7017;SDS011;3549;42.162;24.726;2023-05-07T06:29:26;14.27;;;10.50;;
7017;SDS011;3549;42.162;24.726;2023-05-07T06:31:54;15.83;;;10.93;;
7017;SDS011;3549;42.162;24.726;2023-05-07T06:34:20;14.40;;;10.50;;
7017;SDS011;3549;42.162;24.726;2023-05-07T06:36:46;12.87;;;9.97;;
7017;SDS011;3549;42.162;24.726;2023-05-07T06:39:11;13.40;;;10.23;;
7017;SDS011;3549;42.162;24.726;2023-05-07T06:41:37;17.57;;;10.90;;
7017;SDS011;3549;42.162;24.726;2023-05-07T06:44:02;14.17;;;10.33;;
7017;SDS011;3549;42.162;24.726;2023-05-07T06:46:28;15.23;;;10.53;;
7017;SDS011;3549;42.162;24.726;2023-05-07T06:48:53;16.13;;;10.60;;
7017;SDS011;3549;42.162;24.726;2023-05-07T06:51:19;16.10;;;10.37;;
7017;SDS011;3549;42.162;24.726;2023-05-07T06:53:44;13.40;;;10.57;;
7017;SDS011;3549;42.162;24.726;2023-05-07T06:56:10;15.37;;;11.30;;
7017;SDS011;3549;42.162;24.726;2023-05-07T06:58:37;15.70;;;11.10;;
7017;SDS011;3549;42.162;24.726;2023-05-07T07:01:02;15.70;;;10.70;;
7017;SDS011;3549;42.162;24.726;2023-05-07T07:03:28;18.67;;;10.77;;
7017;SDS011;3549;42.162;24.726;2023-05-07T07:05:54;16.03;;;11.07;;
7017;SDS011;3549;42.162;24.726;2023-05-07T07:08:20;16.00;;;11.60;;
7017;SDS011;3549;42.162;24.726;2023-05-07T07:10:47;14.70;;;11.30;;
7017;SDS011;3549;42.162;24.726;2023-05-07T07:13:12;14.77;;;11.17;;
7017;SDS011;3549;42.162;24.726;2023-05-07T07:15:38;14.23;;;10.33;;
7017;SDS011;3549;42.162;24.726;2023-05-07T07:18:04;12.90;;;10.43;;
7017;SDS011;3549;42.162;24.726;2023-05-07T07:20:29;15.17;;;11.10;;
7017;SDS011;3549;42.162;24.726;2023-05-07T07:22:55;15.43;;;11.10;;
7017;SDS011;3549;42.162;24.726;2023-05-07T07:25:20;16.23;;;11.90;;
7017;SDS011;3549;42.162;24.726;2023-05-07T07:27:46;15.87;;;11.20;;
7017;SDS011;3549;42.162;24.726;2023-05-07T07:30:11;15.93;;;11.33;;
7017;SDS011;3549;42.162;24.726;2023-05-07T07:32:37;13.17;;;10.57;;
7017;SDS011;3549;42.162;24.726;2023-05-07T07:35:02;15.93;;;10.87;;
7017;SDS011;3549;42.162;24.726;2023-05-07T07:37:28;17.20;;;11.73;;
7017;SDS011;3549;42.162;24.726;2023-05-07T07:39:54;15.20;;;11.73;;
7017;SDS011;3549;42.162;24.726;2023-05-07T07:42:20;15.07;;;10.50;;
7017;SDS011;3549;42.162;24.726;2023-05-07T07:44:45;15.83;;;10.83;;
7017;SDS011;3549;42.162;24.726;2023-05-07T07:47:10;14.50;;;11.43;;
7017;SDS011;3549;42.162;24.726;2023-05-07T07:49:36;15.63;;;11.20;;
7017;SDS011;3549;42.162;24.726;2023-05-07T07:52:01;13.53;;;10.90;;
7017;SDS011;3549;42.162;24.726;2023-05-07T07:54:27;15.63;;;10.97;;
7017;SDS011;3549;42.162;24.726;2023-05-07T07:56:52;13.83;;;10.77;;
7017;SDS011;3549;42.162;24.726;2023-05-07T07:59:17;12.87;;;10.23;;
7017;SDS011;3549;42.162;24.726;2023-05-07T08:01:44;13.97;;;9.83;;
7017;SDS011;3549;42.162;24.726;2023-05-07T08:04:10;13.50;;;9.87;;
7017;SDS011;3549;42.162;24.726;2023-05-07T08:06:35;12.27;;;9.80;;
7017;SDS011;3549;42.162;24.726;2023-05-07T08:09:01;15.93;;;9.43;;
7017;SDS011;3549;42.162;24.726;2023-05-07T08:11:27;14.67;;;10.30;;
7017;SDS011;3549;42.162;24.726;2023-05-07T08:13:53;14.53;;;9.73;;
7017;SDS011;3549;42.162;24.726;2023-05-07T08:16:19;12.80;;;9.20;;
7017;SDS011;3549;42.162;24.726;2023-05-07T08:18:45;11.60;;;8.70;;
7017;SDS011;3549;42.162;24.726;2023-05-07T08:21:10;12.73;;;9.80;;
7017;SDS011;3549;42.162;24.726;2023-05-07T08:23:36;13.20;;;9.23;;
7017;SDS011;3549;42.162;24.726;2023-05-07T08:26:01;13.87;;;9.43;;
7017;SDS011;3549;42.162;24.726;2023-05-07T08:28:27;13.87;;;9.93;;
7017;SDS011;3549;42.162;24.726;2023-05-07T08:30:52;14.13;;;9.07;;
7017;SDS011;3549;42.162;24.726;2023-05-07T08:33:18;11.73;;;8.60;;
7017;SDS011;3549;42.162;24.726;2023-05-07T08:35:43;11.33;;;8.50;;
7017;SDS011;3549;42.162;24.726;2023-05-07T08:38:08;13.40;;;9.13;;
7017;SDS011;3549;42.162;24.726;2023-05-07T08:40:36;9.07;;;7.60;;
7017;SDS011;3549;42.162;24.726;2023-05-07T08:43:04;13.47;;;8.47;;
7017;SDS011;3549;42.162;24.726;2023-05-07T08:45:31;10.03;;;7.80;;
7017;SDS011;3549;42.162;24.726;2023-05-07T08:47:59;10.97;;;7.53;;
7017;SDS011;3549;42.162;24.726;2023-05-07T08:50:26;9.47;;;7.10;;
7017;SDS011;3549;42.162;24.726;2023-05-07T08:52:52;10.03;;;6.90;;
7017;SDS011;3549;42.162;24.726;2023-05-07T08:55:18;7.30;;;6.50;;
7017;SDS011;3549;42.162;24.726;2023-05-07T08:57:43;9.00;;;6.50;;
7017;SDS011;3549;42.162;24.726;2023-05-07T09:00:09;9.57;;;6.63;;
7017;SDS011;3549;42.162;24.726;2023-05-07T09:02:35;10.83;;;7.10;;
7017;SDS011;3549;42.162;24.726;2023-05-07T09:05:01;8.43;;;6.30;;
7017;SDS011;3549;42.162;24.726;2023-05-07T09:07:27;8.67;;;5.83;;
7017;SDS011;3549;42.162;24.726;2023-05-07T09:09:52;7.70;;;5.80;;
7017;SDS011;3549;42.162;24.726;2023-05-07T09:12:20;11.70;;;6.70;;
7017;SDS011;3549;42.162;24.726;2023-05-07T09:14:46;8.07;;;6.10;;
7017;SDS011;3549;42.162;24.726;2023-05-07T09:17:12;8.80;;;5.80;;
7017;SDS011;3549;42.162;24.726;2023-05-07T09:19:38;6.77;;;5.13;;
7017;SDS011;3549;42.162;24.726;2023-05-07T09:22:04;6.27;;;5.00;;
7017;SDS011;3549;42.162;24.726;2023-05-07T09:24:32;6.30;;;4.20;;
7017;SDS011;3549;42.162;24.726;2023-05-07T09:27:00;7.03;;;4.87;;
7017;SDS011;3549;42.162;24.726;2023-05-07T09:29:27;8.50;;;5.33;;
7017;SDS011;3549;42.162;24.726;2023-05-07T09:32:01;9.07;;;5.60;;
7017;SDS011;3549;42.162;24.726;2023-05-07T09:34:28;7.07;;;5.57;;
7017;SDS011;3549;42.162;24.726;2023-05-07T09:36:54;8.53;;;4.63;;
7017;SDS011;3549;42.162;24.726;2023-05-07T09:39:19;7.07;;;5.30;;
7017;SDS011;3549;42.162;24.726;2023-05-07T09:41:45;7.67;;;4.90;;
7017;SDS011;3549;42.162;24.726;2023-05-07T09:44:12;8.47;;;5.13;;
7017;SDS011;3549;42.162;24.726;2023-05-07T09:46:39;6.97;;;4.67;;
7017;SDS011;3549;42.162;24.726;2023-05-07T09:49:07;7.40;;;5.37;;
7017;SDS011;3549;42.162;24.726;2023-05-07T09:51:45;7.47;;;5.67;;
7017;SDS011;3549;42.162;24.726;2023-05-07T09:54:14;7.82;;;5.63;;
7017;SDS011;3549;42.162;24.726;2023-05-07T09:56:47;8.53;;;6.00;;
7017;SDS011;3549;42.162;24.726;2023-05-07T09:59:14;7.87;;;5.90;;
7017;SDS011;3549;42.162;24.726;2023-05-07T10:01:41;6.97;;;5.63;;
7017;SDS011;3549;42.162;24.726;2023-05-07T10:04:12;10.82;;;6.05;;
7017;SDS011;3549;42.162;24.726;2023-05-07T10:06:39;7.50;;;5.50;;
7017;SDS011;3549;42.162;24.726;2023-05-07T10:09:06;6.07;;;5.07;;
7017;SDS011;3549;42.162;24.726;2023-05-07T10:11:32;6.43;;;5.10;;
7017;SDS011;3549;42.162;24.726;2023-05-07T10:13:59;6.23;;;5.20;;
7017;SDS011;3549;42.162;24.726;2023-05-07T10:16:27;7.43;;;5.67;;
7017;SDS011;3549;42.162;24.726;2023-05-07T10:18:57;7.17;;;6.03;;
7017;SDS011;3549;42.162;24.726;2023-05-07T10:21:23;9.40;;;5.80;;
7017;SDS011;3549;42.162;24.726;2023-05-07T10:23:54;8.30;;;5.67;;
7017;SDS011;3549;42.162;24.726;2023-05-07T10:26:23;6.50;;;5.70;;
7017;SDS011;3549;42.162;24.726;2023-05-07T10:28:52;7.03;;;5.37;;
7017;SDS011;3549;42.162;24.726;2023-05-07T10:31:33;7.83;;;6.07;;
7017;SDS011;3549;42.162;24.726;2023-05-07T10:34:16;7.25;;;5.22;;
7017;SDS011;3549;42.162;24.726;2023-05-07T10:36:46;8.65;;;5.70;;
7017;SDS011;3549;42.162;24.726;2023-05-07T10:39:12;5.82;;;5.20;;
7017;SDS011;3549;42.162;24.726;2023-05-07T10:41:38;8.60;;;5.82;;
7017;SDS011;3549;42.162;24.726;2023-05-07T10:44:04;9.52;;;5.57;;
7017;SDS011;3549;42.162;24.726;2023-05-07T10:46:30;8.17;;;5.47;;
7017;SDS011;3549;42.162;24.726;2023-05-07T10:51:31;5.43;;;4.88;;
7017;SDS011;3549;42.162;24.726;2023-05-07T10:56:36;6.90;;;5.35;;
7017;SDS011;3549;42.162;24.726;2023-05-07T11:01:55;6.15;;;4.70;;
7017;SDS011;3549;42.162;24.726;2023-05-07T11:04:27;5.72;;;5.03;;
7017;SDS011;3549;42.162;24.726;2023-05-07T11:09:57;6.93;;;4.97;;
7017;SDS011;3549;42.162;24.726;2023-05-07T11:17:31;6.30;;;4.90;;
7017;SDS011;3549;42.162;24.726;2023-05-07T11:19:59;6.45;;;4.90;;
7017;SDS011;3549;42.162;24.726;2023-05-07T11:25:03;5.90;;;4.78;;
7017;SDS011;3549;42.162;24.726;2023-05-07T11:27:30;7.65;;;4.45;;
7017;SDS011;3549;42.162;24.726;2023-05-07T11:29:57;6.28;;;4.40;;
7017;SDS011;3549;42.162;24.726;2023-05-07T11:32:23;5.40;;;4.45;;
7017;SDS011;3549;42.162;24.726;2023-05-07T11:34:56;6.13;;;4.25;;
7017;SDS011;3549;42.162;24.726;2023-05-07T11:37:22;5.32;;;4.18;;
7017;SDS011;3549;42.162;24.726;2023-05-07T11:40:05;5.13;;;4.63;;
7017;SDS011;3549;42.162;24.726;2023-05-07T11:42:38;11.15;;;6.00;;
7017;SDS011;3549;42.162;24.726;2023-05-07T11:45:04;5.40;;;4.43;;
7017;SDS011;3549;42.162;24.726;2023-05-07T11:47:31;5.00;;;4.50;;
7017;SDS011;3549;42.162;24.726;2023-05-07T11:49:57;8.35;;;5.18;;
7017;SDS011;3549;42.162;24.726;2023-05-07T11:52:28;6.28;;;4.43;;
7017;SDS011;3549;42.162;24.726;2023-05-07T11:54:54;5.28;;;4.35;;
7017;SDS011;3549;42.162;24.726;2023-05-07T11:57:21;7.25;;;4.50;;
7017;SDS011;3549;42.162;24.726;2023-05-07T11:59:54;5.45;;;4.60;;
7017;SDS011;3549;42.162;24.726;2023-05-07T12:02:20;7.50;;;4.57;;
7017;SDS011;3549;42.162;24.726;2023-05-07T12:04:45;5.68;;;4.72;;
7017;SDS011;3549;42.162;24.726;2023-05-07T12:07:14;6.93;;;4.50;;
7017;SDS011;3549;42.162;24.726;2023-05-07T12:09:44;5.53;;;4.78;;
7017;SDS011;3549;42.162;24.726;2023-05-07T12:12:10;5.45;;;4.60;;
7017;SDS011;3549;42.162;24.726;2023-05-07T12:14:39;5.85;;;4.70;;
7017;SDS011;3549;42.162;24.726;2023-05-07T12:17:05;5.47;;;4.75;;
7017;SDS011;3549;42.162;24.726;2023-05-07T12:19:36;5.20;;;4.55;;
7017;SDS011;3549;42.162;24.726;2023-05-07T12:22:03;6.00;;;4.65;;
7017;SDS011;3549;42.162;24.726;2023-05-07T12:24:30;5.20;;;4.70;;
7017;SDS011;3549;42.162;24.726;2023-05-07T12:27:09;5.65;;;4.63;;
7017;SDS011;3549;42.162;24.726;2023-05-07T12:29:35;5.10;;;4.60;;
7017;SDS011;3549;42.162;24.726;2023-05-07T12:32:00;4.95;;;4.45;;
7017;SDS011;3549;42.162;24.726;2023-05-07T12:34:26;5.22;;;4.50;;
7017;SDS011;3549;42.162;24.726;2023-05-07T12:36:51;5.97;;;4.85;;
7017;SDS011;3549;42.162;24.726;2023-05-07T12:39:18;6.75;;;4.47;;
7017;SDS011;3549;42.162;24.726;2023-05-07T12:41:56;4.97;;;4.45;;
7017;SDS011;3549;42.162;24.726;2023-05-07T12:44:26;5.70;;;4.60;;
7017;SDS011;3549;42.162;24.726;2023-05-07T12:46:55;6.60;;;4.60;;
7017;SDS011;3549;42.162;24.726;2023-05-07T12:49:20;5.47;;;4.30;;
7017;SDS011;3549;42.162;24.726;2023-05-07T12:51:46;4.80;;;4.30;;
7017;SDS011;3549;42.162;24.726;2023-05-07T12:54:13;6.03;;;4.30;;
7017;SDS011;3549;42.162;24.726;2023-05-07T12:56:59;6.93;;;4.50;;
7017;SDS011;3549;42.162;24.726;2023-05-07T12:59:41;5.28;;;4.18;;
7017;SDS011;3549;42.162;24.726;2023-05-07T13:02:07;4.57;;;4.10;;
7017;SDS011;3549;42.162;24.726;2023-05-07T13:04:33;4.60;;;4.20;;
7017;SDS011;3549;42.162;24.726;2023-05-07T13:06:59;5.05;;;4.45;;
7017;SDS011;3549;42.162;24.726;2023-05-07T13:09:25;7.82;;;4.60;;
7017;SDS011;3549;42.162;24.726;2023-05-07T13:11:50;6.72;;;4.43;;
7017;SDS011;3549;42.162;24.726;2023-05-07T13:14:16;5.53;;;4.57;;
7017;SDS011;3549;42.162;24.726;2023-05-07T13:16:41;5.22;;;4.13;;
7017;SDS011;3549;42.162;24.726;2023-05-07T13:19:07;5.30;;;4.35;;
7017;SDS011;3549;42.162;24.726;2023-05-07T13:21:32;6.88;;;4.10;;
7017;SDS011;3549;42.162;24.726;2023-05-07T13:23:58;5.20;;;4.70;;
7017;SDS011;3549;42.162;24.726;2023-05-07T13:26:23;7.18;;;4.38;;
7017;SDS011;3549;42.162;24.726;2023-05-07T13:28:49;5.55;;;4.18;;
7017;SDS011;3549;42.162;24.726;2023-05-07T13:31:16;5.82;;;3.90;;
7017;SDS011;3549;42.162;24.726;2023-05-07T13:33:42;4.78;;;4.20;;
7017;SDS011;3549;42.162;24.726;2023-05-07T13:36:08;8.05;;;4.30;;
7017;SDS011;3549;42.162;24.726;2023-05-07T13:38:33;4.70;;;4.10;;
7017;SDS011;3549;42.162;24.726;2023-05-07T13:40:58;4.68;;;4.00;;
7017;SDS011;3549;42.162;24.726;2023-05-07T13:43:24;4.45;;;3.97;;
7017;SDS011;3549;42.162;24.726;2023-05-07T13:45:49;5.55;;;3.97;;
7017;SDS011;3549;42.162;24.726;2023-05-07T13:48:15;5.15;;;4.00;;
7017;SDS011;3549;42.162;24.726;2023-05-07T13:50:40;4.35;;;3.53;;
7017;SDS011;3549;42.162;24.726;2023-05-07T13:53:07;5.10;;;3.47;;
7017;SDS011;3549;42.162;24.726;2023-05-07T13:55:32;4.47;;;3.50;;
7017;SDS011;3549;42.162;24.726;2023-05-07T13:57:58;5.57;;;3.80;;
7017;SDS011;3549;42.162;24.726;2023-05-07T14:00:25;6.07;;;3.80;;
7017;SDS011;3549;42.162;24.726;2023-05-07T14:02:52;4.25;;;3.53;;
7017;SDS011;3549;42.162;24.726;2023-05-07T14:05:18;5.28;;;3.38;;
7017;SDS011;3549;42.162;24.726;2023-05-07T14:07:43;4.47;;;3.38;;
7017;SDS011;3549;42.162;24.726;2023-05-07T14:10:09;7.28;;;3.38;;
7017;SDS011;3549;42.162;24.726;2023-05-07T14:12:36;3.55;;;3.20;;
7017;SDS011;3549;42.162;24.726;2023-05-07T14:15:01;3.70;;;3.40;;
7017;SDS011;3549;42.162;24.726;2023-05-07T14:17:27;5.75;;;3.42;;
7017;SDS011;3549;42.162;24.726;2023-05-07T14:19:53;4.43;;;3.22;;
7017;SDS011;3549;42.162;24.726;2023-05-07T14:22:19;4.28;;;3.28;;
7017;SDS011;3549;42.162;24.726;2023-05-07T14:24:48;4.55;;;3.25;;
7017;SDS011;3549;42.162;24.726;2023-05-07T14:27:14;3.67;;;3.38;;
7017;SDS011;3549;42.162;24.726;2023-05-07T14:29:40;5.28;;;3.28;;
7017;SDS011;3549;42.162;24.726;2023-05-07T14:32:06;5.18;;;3.80;;
7017;SDS011;3549;42.162;24.726;2023-05-07T14:34:31;6.22;;;3.70;;
7017;SDS011;3549;42.162;24.726;2023-05-07T14:36:57;4.07;;;3.33;;
7017;SDS011;3549;42.162;24.726;2023-05-07T14:39:23;4.53;;;3.50;;
7017;SDS011;3549;42.162;24.726;2023-05-07T14:41:49;5.53;;;3.70;;
7017;SDS011;3549;42.162;24.726;2023-05-07T14:44:14;6.13;;;3.50;;
7017;SDS011;3549;42.162;24.726;2023-05-07T14:46:39;5.35;;;3.63;;
7017;SDS011;3549;42.162;24.726;2023-05-07T14:49:05;7.80;;;3.83;;
7017;SDS011;3549;42.162;24.726;2023-05-07T14:51:31;4.43;;;3.45;;
7017;SDS011;3549;42.162;24.726;2023-05-07T14:53:57;5.45;;;3.67;;
7017;SDS011;3549;42.162;24.726;2023-05-07T14:56:23;4.43;;;3.40;;
7017;SDS011;3549;42.162;24.726;2023-05-07T14:58:48;6.30;;;3.67;;
7017;SDS011;3549;42.162;24.726;2023-05-07T15:01:14;5.15;;;3.40;;